Terminal Aerodrome Forecast
Issued by NWS Twin Cities, MN

Home | Current Version | Previous Version | Text Only | Print | Product List | Glossary On
Versions: 1 2 3 4 5 6 7 8 9 10 11 12 13 14 15 16
833
FTUS43 KMPX 250536
TAFSTC
TAF
KSTC 250536Z 2506/2606 33011KT P6SM SKC
     FM251900 27011KT P6SM SCT035 BKN070
     FM260000 23005KT P6SM SCT035 OVC060=

USA.gov is the U.S. government's official web portal to all federal, state and local government web resources and services.